Flight Track Log - Related Links

Times and Time Zones

All times are in EDT time to prevent confusion due to time zone crossing. See the WBR2626 flight status page for this flight to view local times or setup timezone preferences in your user account.

Time Position Orientation Groundspeed Altitude Reporting Facility
EDT Latitude Longitude Course Direction KTS MPH feet Rate Location/Type
Fri 04:39:04 PM 38.7667 -90.4000 360° North 93 107 1,100  Level Gateway (St. Louis) TRACON
Fri 04:40:04 PM 38.7833 -90.4000 360° North 103 119 2,000 800 Climbing Gateway (St. Louis) TRACON
Fri 04:41:04 PM 38.8167 -90.4000 360° North 120 138 2,700 500 Climbing Gateway (St. Louis) TRACON
Fri 04:42:04 PM 38.8500 -90.3833 21° North 138 159 3,000 400 Climbing Gateway (St. Louis) TRACON
Fri 04:43:04 PM 38.9000 -90.4000 345° North 131 151 3,500 550 Climbing Gateway (St. Louis) TRACON
Fri 04:44:04 PM 38.9333 -90.4167 339° North 129 148 4,100 640 Climbing Gateway (St. Louis) TRACON
Fri 04:44:19 PM 38.9381 -90.4164 North 129 148 4,300 623 Climbing Kansas City Center
Fri 04:45:21 PM 38.9736 -90.4306 343° North 131 151 4,900 581 Climbing Kansas City Center
Fri 04:46:23 PM 39.0100 -90.4439 344° North 135 155 5,500 629 Climbing Kansas City Center
Fri 04:47:25 PM 39.0489 -90.4578 344° North 135 155 6,200 629 Climbing Kansas City Center
Fri 04:48:27 PM 39.0858 -90.4686 347° North 138 159 6,800 532 Climbing Kansas City Center
Fri 04:49:29 PM 39.1208 -90.4828 343° North 132 152 7,300 484 Climbing Kansas City Center
Fri 04:50:31 PM 39.1583 -90.4967 344° North 138 159 7,800 339 Climbing Kansas City Center
Fri 04:51:33 PM 39.1964 -90.5106 344° North 142 163 8,000 97 Climbing Kansas City Center
Fri 04:52:35 PM 39.2353 -90.5272 342° North 145 167 8,000  Level Kansas City Center
Fri 04:53:37 PM 39.2808 -90.5467 342° North 144 166 8,000  Level Kansas City Center
Fri 04:54:39 PM 39.3192 -90.5622 343° North 143 165 8,000  Level Kansas City Center
Fri 04:55:41 PM 39.3575 -90.5764 344° North 143 165 8,000  Level Kansas City Center
Fri 04:56:43 PM 39.3956 -90.5867 348° North 141 162 8,000  Level Kansas City Center
Fri 04:57:45 PM 39.4364 -90.6053 341° North 144 166 8,000  Level Kansas City Center
Fri 04:58:48 PM 39.4733 -90.6161 347° North 144 166 8,000  Level Kansas City Center
Fri 04:59:50 PM 39.5192 -90.6336 344° North 143 165 8,000  Level Kansas City Center
Fri 05:00:52 PM 39.5567 -90.6503 341° North 143 165 8,000  Level Kansas City Center
Fri 05:01:54 PM 39.5942 -90.6658 342° North 141 162 8,000  Level Kansas City Center
Fri 05:02:56 PM 39.6325 -90.6800 344° North 142 163 8,000 -48 Level Kansas City Center
Fri 05:03:58 PM 39.6714 -90.6925 346° North 143 165 7,900 -48 Descending Kansas City Center
Fri 05:05:00 PM 39.7097 -90.7083 342° North 145 167 7,900  Level Kansas City Center
Fri 05:06:02 PM 39.7556 -90.7239 345° North 143 165 7,900  Level Kansas City Center
Fri 05:07:04 PM 39.7936 -90.7375 345° North 141 162 7,900 48 Level Kansas City Center
Fri 05:08:06 PM 39.8306 -90.7506 345° North 140 161 8,000 48 Climbing Kansas City Center
Fri 05:09:08 PM 39.8689 -90.7669 342° North 142 163 8,000  Level Kansas City Center
Fri 05:10:10 PM 39.9072 -90.7828 342° North 142 163 8,000 -48 Level Kansas City Center
Fri 05:11:12 PM 39.9450 -90.7969 344° North 142 163 7,900  Descending Kansas City Center
Fri 05:12:14 PM 39.9897 -90.8153 343° North 140 161 8,000 48 Climbing Kansas City Center
Fri 05:13:16 PM 40.0272 -90.8300 343° North 140 161 8,000  Level Kansas City Center
Fri 05:14:18 PM 40.0656 -90.8436 345° North 142 163 8,000  Level Kansas City Center
Fri 05:15:20 PM 40.1022 -90.8600 341° North 141 162 8,000 -52 Level Kansas City Center
Fri 05:16:14 PM 40.1350 -90.8733 343° North 137 158 7,900 -52 Descending Chicago Center
Fri 05:17:16 PM 40.1731 -90.8858 346° North 140 161 7,900 48 Level Chicago Center
Fri 05:18:18 PM 40.2119 -90.9033 341° North 138 159 8,000 45 Climbing Chicago Center
Fri 05:19:29 PM 40.2586 -90.9214 344° North 140 161 8,000 -45 Level Kansas City Center
Fri 05:20:31 PM 40.2956 -90.9361 343° North 141 162 7,900 -48 Descending Kansas City Center
Fri 05:21:33 PM 40.3322 -90.9522 341° North 140 161 7,900  Level Kansas City Center
Fri 05:22:35 PM 40.3711 -90.9653 346° North 141 162 7,900 -155 Level Kansas City Center
Fri 05:23:29 PM 40.4081 -90.9833 340° North 144 166 7,600 -517 Descending Chicago Center
Fri 05:24:31 PM 40.4317 -91.0211 309° West 135 155 6,900 -581 Descending Chicago Center
Fri 05:25:33 PM 40.4594 -91.0628 311° West 145 167 6,400 -484 Descending Chicago Center
Fri 05:26:35 PM 40.4842 -91.1044 308° West 143 165 5,900 -484 Descending Chicago Center
Fri 05:27:37 PM 40.5172 -91.1161 345° North 140 161 5,400 -387 Descending Chicago Center
Fri 05:28:39 PM 40.5544 -91.1228 352° North 135 155 5,100 -484 Descending Chicago Center
Fri 05:29:41 PM 40.5861 -91.1233 359° North 129 148 4,400 -726 Descending Chicago Center
Fri 05:30:43 PM 40.6278 -91.1233 360° North 124 143 3,600 -677 Descending Chicago Center
Fri 05:31:45 PM 40.6603 -91.1233 360° North 121 139 3,000 -581 Descending Chicago Center
Fri 05:33:00 PM 40.7048 -91.1241 270° West  Level Estimated
Fri 05:40:00 PM 40.7667 -91.1167 270° West  Level FlightAware Approximate
Fri 05:41:00 PM 40.7832 -91.1255 270° West  Level Estimated

Login

Don't have an account? Register now (free) for customized features, flight alerts, and more!